createdAt,value
2022-12-13T00:00:08.603Z,99700.59
2022-12-13T00:05:13.200Z,99703.03
2022-12-13T00:10:16.670Z,99688.91
2022-12-13T00:15:20.105Z,99698.69
2022-12-13T00:20:23.145Z,99701.56
2022-12-13T00:25:26.139Z,99699.50
2022-12-13T00:30:31.755Z,99699.59
2022-12-13T00:35:42.026Z,99714.31
2022-12-13T00:40:44.953Z,99705.97
2022-12-13T00:45:48.202Z,99719.19
2022-12-13T00:50:51.085Z,99727.41
2022-12-13T00:55:54.370Z,99730.91
2022-12-13T01:01:07.710Z,99726.00
2022-12-13T01:06:22.058Z,99732.09
2022-12-13T01:11:25.574Z,99744.91
2022-12-13T01:16:28.801Z,99741.72
2022-12-13T01:21:32.036Z,99743.38
2022-12-13T01:26:35.150Z,99747.94
2022-12-13T01:31:41.832Z,99747.09
2022-12-13T01:36:46.827Z,99756.88
2022-12-13T01:41:59.646Z,99759.38
2022-12-13T01:47:03.190Z,99765.41
2022-12-13T01:52:08.881Z,99775.88
2022-12-13T01:57:20.951Z,99776.63
2022-12-13T02:02:24.210Z,99787.50
2022-12-13T02:07:33.009Z,99791.25
2022-12-13T02:12:38.248Z,99785.72
2022-12-13T02:18:10.428Z,99794.69
2022-12-13T02:23:43.468Z,99788.38
2022-12-13T02:29:10.842Z,99790.00
2022-12-13T02:34:24.459Z,99789.16
2022-12-13T02:39:42.643Z,99790.16
2022-12-13T02:45:05.956Z,99779.28
2022-12-13T02:50:11.775Z,99780.44
2022-12-13T02:55:16.964Z,99779.03
2022-12-13T03:00:37.287Z,99787.66
2022-12-13T03:06:13.991Z,99785.63
2022-12-13T03:11:20.158Z,99789.84
2022-12-13T03:16:38.045Z,99776.69
2022-12-13T03:21:48.784Z,99787.16
2022-12-13T03:26:52.396Z,99783.97
2022-12-13T03:31:55.400Z,99767.41
2022-12-13T03:36:58.416Z,99778.13
2022-12-13T03:42:04.149Z,99783.22
2022-12-13T03:47:06.997Z,99781.03
2022-12-13T03:52:09.873Z,99787.66
2022-12-13T03:57:15.835Z,99786.28
2022-12-13T04:02:31.024Z,99793.56
2022-12-13T04:07:34.841Z,99794.78
2022-12-13T04:12:56.024Z,99804.66
2022-12-13T04:18:03.680Z,99806.63
2022-12-13T04:23:10.086Z,99802.84
2022-12-13T04:28:22.563Z,99800.66
2022-12-13T04:33:26.147Z,99807.81
2022-12-13T04:38:29.190Z,99820.09
2022-12-13T04:43:32.368Z,99810.94
2022-12-13T04:48:35.557Z,99806.00
2022-12-13T04:53:38.510Z,99809.75
2022-12-13T04:58:41.437Z,99811.00
2022-12-13T05:03:44.414Z,99807.22
2022-12-13T05:08:47.411Z,99805.00
2022-12-13T05:13:50.711Z,99812.13
2022-12-13T05:18:53.607Z,99810.84
2022-12-13T05:23:56.509Z,99816.22
2022-12-13T05:28:59.982Z,99814.81
2022-12-13T05:34:02.884Z,99820.97
2022-12-13T05:39:05.744Z,99812.59
2022-12-13T05:44:28.867Z,99812.97
2022-12-13T05:49:32.351Z,99808.22
2022-12-13T05:54:35.423Z,99811.28
2022-12-13T05:59:38.381Z,99813.28
2022-12-13T06:04:41.218Z,99822.81
2022-12-13T06:09:44.175Z,99837.72
2022-12-13T06:14:47.232Z,99828.44
2022-12-13T06:19:51.397Z,99832.88
2022-12-13T06:24:55.150Z,99842.53
2022-12-13T06:30:02.413Z,99834.34
2022-12-13T06:35:08.972Z,99845.69
2022-12-13T06:40:31.518Z,99865.28
2022-12-13T06:45:38.241Z,99859.53
2022-12-13T06:50:41.243Z,99867.00
2022-12-13T06:55:44.230Z,99868.25
2022-12-13T07:00:49.049Z,99858.72
2022-12-13T07:05:56.748Z,99883.19
2022-12-13T07:11:02.029Z,99884.94
2022-12-13T07:16:05.503Z,99875.38
2022-12-13T07:21:21.993Z,99877.94
2022-12-13T07:26:25.952Z,99889.31
2022-12-13T07:31:29.480Z,99890.03
2022-12-13T07:36:32.537Z,99897.78
2022-12-13T07:41:35.404Z,99902.19
2022-12-13T07:46:38.237Z,99892.75
2022-12-13T07:51:41.116Z,99900.47
2022-12-13T07:56:44.262Z,99890.66
2022-12-13T08:01:48.921Z,99885.25
2022-12-13T08:06:51.915Z,99894.59
2022-12-13T08:11:54.760Z,99899.03
2022-12-13T08:16:58.041Z,99889.97
2022-12-13T08:22:02.035Z,99891.09
2022-12-13T08:27:05.740Z,99894.81
2022-12-13T08:32:11.917Z,99905.56
2022-12-13T08:37:14.878Z,99909.00
2022-12-13T08:42:20.351Z,99901.75
2022-12-13T08:47:27.051Z,99893.28
2022-12-13T08:52:31.930Z,99906.13
2022-12-13T08:57:43.362Z,99904.69
2022-12-13T09:02:46.809Z,99909.06
2022-12-13T09:07:49.780Z,99901.63
2022-12-13T09:13:01.098Z,99912.75
2022-12-13T09:18:05.675Z,99891.16
2022-12-13T09:23:14.264Z,99899.69
2022-12-13T09:28:29.262Z,99895.72
2022-12-13T09:33:32.592Z,99880.53
2022-12-13T09:38:45.294Z,99891.88
2022-12-13T09:44:05.187Z,99881.22
2022-12-13T09:49:35.879Z,99882.00
2022-12-13T09:54:49.118Z,99879.41
2022-12-13T09:59:55.901Z,99879.50
2022-12-13T10:05:21.963Z,99886.59
2022-12-13T10:10:27.899Z,99879.72
2022-12-13T10:15:33.224Z,99872.44
2022-12-13T10:20:36.987Z,99862.75
2022-12-13T10:26:03.235Z,99868.69
2022-12-13T10:31:07.813Z,99859.00
2022-12-13T10:36:35.743Z,99850.97
2022-12-13T10:41:39.990Z,99858.22
2022-12-13T10:47:05.825Z,99846.03
2022-12-13T10:52:32.359Z,99843.31
2022-12-13T10:57:35.347Z,99841.63
2022-12-13T11:02:41.748Z,99827.16
2022-12-13T11:07:44.760Z,99831.19
2022-12-13T11:12:49.510Z,99813.69
2022-12-13T11:17:58.441Z,99817.56
2022-12-13T11:23:13.185Z,99827.78
2022-12-13T11:28:49.118Z,99812.94
2022-12-13T11:34:13.528Z,99818.28
2022-12-13T11:39:31.126Z,99810.56
2022-12-13T11:45:23.406Z,99811.41
2022-12-13T11:50:38.328Z,99814.84
2022-12-13T11:55:50.098Z,99806.28
2022-12-13T12:01:10.625Z,99809.81
2022-12-13T12:06:27.355Z,99813.19
2022-12-13T12:11:41.823Z,99813.19
2022-12-13T12:16:51.820Z,99810.56
2022-12-13T12:22:18.755Z,99813.19
2022-12-13T12:27:54.441Z,99801.28
2022-12-13T12:33:04.460Z,99805.66
2022-12-13T12:38:58.730Z,99807.22
2022-12-13T12:44:15.312Z,99799.59
2022-12-13T12:49:32.785Z,99799.72
2022-12-13T12:55:13.349Z,99799.81
2022-12-13T13:00:23.348Z,99801.56
2022-12-13T13:05:49.408Z,99810.34
2022-12-13T13:10:53.425Z,99812.34
2022-12-13T13:16:06.064Z,99816.09
2022-12-13T13:21:24.226Z,99820.47
2022-12-13T13:26:35.975Z,99826.63
2022-12-13T13:32:05.262Z,99828.59
2022-12-13T13:37:22.831Z,99833.28
2022-12-13T13:42:31.012Z,99848.34
2022-12-13T13:47:40.267Z,99838.38
2022-12-13T13:52:58.011Z,99842.34
2022-12-13T13:58:57.795Z,99839.41
2022-12-13T14:04:22.785Z,99840.94
2022-12-13T14:10:20.281Z,99838.31
2022-12-13T14:15:59.269Z,99852.75
2022-12-13T14:21:26.907Z,99844.06
2022-12-13T14:27:00.139Z,99846.00
2022-12-13T14:32:31.371Z,99858.84
2022-12-13T14:37:37.807Z,99856.25
2022-12-13T14:42:42.406Z,99838.34
2022-12-13T14:47:54.445Z,99843.31
2022-12-13T14:52:58.021Z,99843.28
2022-12-13T14:58:16.558Z,99841.44
2022-12-13T15:03:26.658Z,99854.69
2022-12-13T15:08:38.118Z,99860.25
2022-12-13T15:13:52.679Z,99857.31
2022-12-13T15:19:30.120Z,99870.31
2022-12-13T15:24:47.056Z,99869.59
2022-12-13T15:29:51.410Z,99875.81
2022-12-13T15:34:55.675Z,99888.38
2022-12-13T15:40:09.053Z,99887.28
2022-12-13T15:45:28.262Z,99892.97
2022-12-13T15:50:45.197Z,99896.13
2022-12-13T15:55:51.743Z,99902.78
2022-12-13T16:00:54.945Z,99904.25
2022-12-13T16:05:58.180Z,99908.34
2022-12-13T16:11:01.490Z,99906.84
2022-12-13T16:16:28.588Z,99921.38
2022-12-13T16:21:31.575Z,99921.69
2022-12-13T16:26:34.957Z,99912.88
2022-12-13T16:31:38.008Z,99909.22
2022-12-13T16:36:41.126Z,99919.13
2022-12-13T16:41:47.907Z,99913.56
2022-12-13T16:47:15.287Z,99897.00
2022-12-13T16:52:13.814Z,99912.09
2022-12-13T16:57:16.760Z,99919.25
2022-12-13T17:02:20.374Z,99909.28
2022-12-13T17:07:23.761Z,99900.16
2022-12-13T17:12:26.697Z,99902.09
2022-12-13T17:17:29.466Z,99919.41
2022-12-13T17:22:32.774Z,99919.59
2022-12-13T17:27:36.296Z,99924.22
2022-12-13T17:32:39.212Z,99933.84
2022-12-13T17:37:43.496Z,99931.75
2022-12-13T17:42:50.957Z,99946.44
2022-12-13T17:47:53.919Z,99938.31
2022-12-13T17:52:56.843Z,99936.50
2022-12-13T17:58:04.281Z,99931.47
2022-12-13T18:03:07.560Z,99930.69
2022-12-13T18:08:10.615Z,99926.63
2022-12-13T18:13:13.460Z,99936.22
2022-12-13T18:18:16.861Z,99939.16
2022-12-13T18:23:20.037Z,99931.03
2022-12-13T18:28:23.051Z,99930.66
2022-12-13T18:33:26.349Z,99941.28
2022-12-13T18:38:36.232Z,99941.66
2022-12-13T18:43:39.903Z,99941.81
2022-12-13T18:48:43.273Z,99950.59
2022-12-13T18:53:46.307Z,99943.03
2022-12-13T18:58:50.484Z,99932.81
2022-12-13T19:03:54.991Z,99942.44
2022-12-13T19:08:59.213Z,99935.88
2022-12-13T19:14:02.268Z,99941.28
2022-12-13T19:19:07.073Z,99936.53
2022-12-13T19:24:13.857Z,99943.69
2022-12-13T19:29:16.969Z,99943.03
2022-12-13T19:34:20.177Z,99950.19
2022-12-13T19:39:24.072Z,99938.41
2022-12-13T19:44:27.088Z,99939.50
2022-12-13T19:49:30.242Z,99950.91
2022-12-13T19:54:32.935Z,99956.31
2022-12-13T19:59:35.893Z,99950.53
2022-12-13T20:04:38.844Z,99952.44
2022-12-13T20:09:42.002Z,99954.38
2022-12-13T20:14:44.891Z,99942.59
2022-12-13T20:19:47.859Z,99932.31
2022-12-13T20:24:51.071Z,99958.19
2022-12-13T20:29:55.711Z,99954.06
2022-12-13T20:34:58.701Z,99961.91
2022-12-13T20:40:01.655Z,99955.06
2022-12-13T20:45:05.627Z,99956.00
2022-12-13T20:50:08.953Z,99961.16
2022-12-13T20:55:13.815Z,99965.56
2022-12-13T21:00:17.831Z,99963.81
2022-12-13T21:05:21.819Z,99962.22
2022-12-13T21:10:24.750Z,99968.38
2022-12-13T21:15:27.824Z,99953.91
2022-12-13T21:20:31.235Z,99936.91
2022-12-13T21:25:34.100Z,99938.84
2022-12-13T21:30:37.186Z,99932.97
2022-12-13T21:35:40.310Z,99939.97
2022-12-13T21:40:49.623Z,99936.75
2022-12-13T21:45:52.757Z,99928.25
2022-12-13T21:50:55.847Z,99933.59
2022-12-13T21:56:17.663Z,99930.31
2022-12-13T22:01:20.700Z,99931.16
2022-12-13T22:06:23.534Z,99928.88
2022-12-13T22:11:26.412Z,99934.88
2022-12-13T22:16:29.751Z,99933.25
2022-12-13T22:21:32.769Z,99919.59
2022-12-13T22:26:37.500Z,99912.75
2022-12-13T22:31:41.262Z,99918.06
2022-12-13T22:36:44.736Z,99917.06
2022-12-13T22:41:49.756Z,99906.59
2022-12-13T22:46:52.661Z,99900.44
2022-12-13T22:51:55.614Z,99908.16
2022-12-13T22:56:58.392Z,99902.88
2022-12-13T23:02:03.004Z,99901.13
2022-12-13T23:07:06.840Z,99898.56
2022-12-13T23:12:30.055Z,99902.09
2022-12-13T23:17:33.004Z,99890.34
2022-12-13T23:22:35.991Z,99895.63
2022-12-13T23:27:38.921Z,99875.31
2022-12-13T23:32:41.751Z,99888.13
2022-12-13T23:37:44.459Z,99891.44
2022-12-13T23:42:51.704Z,99887.78
2022-12-13T23:47:54.548Z,99883.06
2022-12-13T23:52:57.237Z,99884.38
2022-12-13T23:58:00.081Z,99890.88
